createdAt,value
2018-06-12T00:03:54.016Z,75.70
2018-06-12T00:08:57.628Z,75.70
2018-06-12T00:14:01.241Z,75.90
2018-06-12T00:19:05.098Z,75.50
2018-06-12T00:24:10.121Z,75.70
2018-06-12T00:29:13.816Z,75.80
2018-06-12T00:34:17.957Z,75.70
2018-06-12T00:39:21.693Z,75.20
2018-06-12T00:44:25.927Z,75.40
2018-06-12T00:49:31.447Z,75.10
2018-06-12T00:54:35.086Z,75.80
2018-06-12T00:59:38.737Z,76.50
2018-06-12T01:04:42.373Z,76.50
2018-06-12T01:09:46.085Z,76.40
2018-06-12T01:14:49.771Z,76.10
2018-06-12T01:19:54.364Z,76.00
2018-06-12T01:24:57.992Z,76.00
2018-06-12T01:30:01.739Z,75.80
2018-06-12T01:35:06.373Z,75.40
2018-06-12T01:40:10.468Z,75.30
2018-06-12T01:45:14.206Z,76.40
2018-06-12T01:50:18.097Z,76.40
2018-06-12T01:55:22.637Z,76.70
2018-06-12T02:00:26.298Z,76.60
2018-06-12T02:05:31.832Z,76.70
2018-06-12T02:10:43.368Z,76.30
2018-06-12T02:15:47.085Z,76.10
2018-06-12T02:20:51.009Z,76.60
2018-06-12T02:31:09.007Z,75.90
2018-06-12T02:36:12.628Z,76.10
2018-06-12T02:41:16.252Z,75.60
2018-06-12T02:46:19.872Z,75.70
2018-06-12T02:51:23.765Z,75.80
2018-06-12T02:56:28.166Z,76.30
2018-06-12T03:01:31.941Z,77.00
2018-06-12T03:06:36.506Z,77.10
2018-06-12T03:11:40.817Z,77.10
2018-06-12T03:16:44.439Z,76.90
2018-06-12T03:21:48.375Z,76.90
2018-06-12T03:26:52.128Z,77.20
2018-06-12T03:31:55.743Z,77.20
2018-06-12T03:36:59.372Z,76.50
2018-06-12T03:42:03.149Z,76.60
2018-06-12T03:47:06.784Z,76.50
2018-06-12T03:52:10.397Z,77.10
2018-06-12T03:57:14.461Z,77.20
2018-06-12T04:02:19.957Z,77.00
2018-06-12T04:07:24.292Z,77.30
2018-06-12T04:12:27.921Z,76.30
2018-06-12T04:17:31.573Z,76.70
2018-06-12T04:22:35.203Z,77.30
2018-06-12T04:27:38.868Z,77.30
2018-06-12T04:32:42.471Z,77.40
2018-06-12T04:37:46.123Z,76.90
2018-06-12T04:42:49.736Z,76.30
2018-06-12T04:47:53.336Z,76.00
2018-06-12T04:52:57.324Z,75.60
2018-06-12T04:58:01.000Z,75.50
2018-06-12T05:03:05.175Z,77.00
2018-06-12T05:08:09.131Z,77.70
2018-06-12T05:13:14.573Z,76.80
2018-06-12T05:18:20.411Z,76.00
2018-06-12T05:23:24.106Z,75.80
2018-06-12T05:28:36.636Z,75.10
2018-06-12T05:33:40.255Z,76.30
2018-06-12T05:38:44.283Z,76.30
2018-06-12T05:43:47.937Z,75.20
2018-06-12T05:48:51.568Z,75.50
2018-06-12T05:53:55.221Z,75.30
2018-06-12T05:58:58.885Z,74.50
2018-06-12T06:04:02.649Z,75.20
2018-06-12T06:09:08.751Z,75.40
2018-06-12T06:14:12.423Z,75.40
2018-06-12T06:19:16.182Z,75.00
2018-06-12T06:24:20.423Z,75.90
2018-06-12T06:29:24.120Z,77.20
2018-06-12T06:34:27.789Z,75.70
2018-06-12T06:39:31.509Z,76.20
2018-06-12T06:49:39.075Z,74.30
2018-06-12T06:54:43.625Z,76.20
2018-06-12T06:59:47.379Z,77.70
2018-06-12T07:04:51.056Z,77.30
2018-06-12T07:09:55.501Z,76.70
2018-06-12T07:14:59.171Z,75.10
2018-06-12T07:20:02.929Z,73.70
2018-06-12T07:25:07.277Z,71.80
2018-06-12T07:30:10.977Z,71.90
2018-06-12T07:35:15.318Z,70.70
2018-06-12T07:40:18.985Z,71.80
2018-06-12T07:45:22.920Z,71.40
2018-06-12T07:50:26.576Z,71.40
2018-06-12T07:55:30.230Z,71.70
2018-06-12T08:00:33.905Z,70.60
2018-06-12T08:05:37.577Z,70.20
2018-06-12T08:10:41.707Z,69.00
2018-06-12T08:15:45.360Z,69.70
2018-06-12T08:20:49.031Z,69.50
2018-06-12T08:25:52.848Z,64.70
2018-06-12T08:30:56.508Z,64.30
2018-06-12T08:36:01.685Z,63.80
2018-06-12T08:41:05.388Z,63.40
2018-06-12T08:46:09.540Z,63.40
2018-06-12T08:51:13.159Z,63.60
2018-06-12T08:56:17.224Z,64.00
2018-06-12T09:01:20.895Z,62.40
2018-06-12T09:06:25.328Z,63.60
2018-06-12T09:11:28.988Z,63.30
2018-06-12T09:16:32.679Z,62.60
2018-06-12T09:21:36.311Z,61.00
2018-06-12T09:26:40.008Z,63.00
2018-06-12T09:31:44.549Z,61.10
2018-06-12T09:36:48.444Z,60.60
2018-06-12T09:41:52.820Z,59.80
2018-06-12T09:46:56.526Z,60.60
2018-06-12T09:52:00.293Z,59.80
2018-06-12T09:57:04.334Z,61.40
2018-06-12T10:02:08.022Z,60.50
2018-06-12T10:07:11.675Z,59.50
2018-06-12T10:12:15.377Z,61.00
2018-06-12T10:17:19.035Z,60.60
2018-06-12T10:22:22.666Z,59.30
2018-06-12T10:27:26.329Z,58.80
2018-06-12T10:32:29.983Z,57.50
2018-06-12T10:37:33.704Z,58.90
2018-06-12T10:42:37.343Z,59.80
2018-06-12T10:47:42.719Z,58.70
2018-06-12T10:52:46.378Z,58.00
2018-06-12T10:57:50.744Z,58.40
2018-06-12T11:02:54.389Z,56.90
2018-06-12T11:07:58.399Z,56.50
2018-06-12T11:13:02.307Z,54.80
2018-06-12T11:18:06.486Z,52.40
2018-06-12T11:23:10.234Z,51.90
2018-06-12T11:28:13.962Z,52.80
2018-06-12T11:33:17.658Z,52.80
2018-06-12T11:38:21.649Z,51.50
2018-06-12T11:43:25.588Z,50.00
2018-06-12T11:48:29.595Z,50.50
2018-06-12T11:53:33.264Z,51.10
2018-06-12T11:58:37.206Z,52.10
2018-06-12T12:03:40.964Z,54.20
2018-06-12T12:08:45.487Z,55.30
2018-06-12T12:19:15.801Z,55.80
2018-06-12T12:24:19.478Z,55.30
2018-06-12T12:29:23.140Z,56.20
2018-06-12T12:34:27.789Z,55.60
2018-06-12T12:39:31.511Z,57.50
2018-06-12T12:44:35.172Z,58.50
2018-06-12T12:49:39.685Z,59.00
2018-06-12T12:54:44.404Z,59.00
2018-06-12T12:59:48.767Z,58.20
2018-06-12T13:04:52.453Z,57.90
2018-06-12T13:09:56.174Z,57.30
2018-06-12T13:14:59.823Z,57.70
2018-06-12T13:20:03.568Z,57.10
2018-06-12T13:25:11.090Z,57.60
2018-06-12T13:30:14.772Z,58.10
2018-06-12T13:35:18.522Z,58.20
2018-06-12T13:40:22.988Z,58.70
2018-06-12T13:45:27.146Z,58.40
2018-06-12T13:50:30.829Z,58.50
2018-06-12T13:55:34.497Z,59.30
2018-06-12T14:00:38.276Z,59.50
2018-06-12T14:05:41.975Z,59.80
2018-06-12T14:10:46.328Z,59.50
2018-06-12T14:15:50.037Z,58.80
2018-06-12T14:20:53.681Z,58.90
2018-06-12T14:25:57.372Z,59.10
2018-06-12T14:31:01.721Z,59.40
2018-06-12T14:36:05.531Z,59.80
2018-06-12T14:41:09.222Z,58.50
2018-06-12T14:46:12.872Z,59.20
2018-06-12T14:51:17.248Z,59.10
2018-06-12T14:56:21.396Z,58.00
2018-06-12T15:01:26.641Z,59.20
2018-06-12T15:06:30.313Z,57.20
2018-06-12T15:11:33.973Z,56.80
2018-06-12T15:16:37.637Z,56.80
2018-06-12T15:21:42.181Z,55.00
2018-06-12T15:26:46.075Z,54.90
2018-06-12T15:37:00.449Z,54.60
2018-06-12T15:42:04.517Z,54.30
2018-06-12T15:47:08.885Z,53.60
2018-06-12T15:52:12.564Z,53.80
2018-06-12T15:57:16.673Z,54.20
2018-06-12T16:02:20.692Z,52.70
2018-06-12T16:07:24.378Z,54.50
2018-06-12T16:12:28.067Z,55.10
2018-06-12T16:17:31.731Z,55.10
2018-06-12T16:22:36.334Z,57.80
2018-06-12T16:27:40.109Z,59.40
2018-06-12T16:32:43.765Z,61.30
2018-06-12T16:37:47.559Z,60.90
2018-06-12T16:42:51.250Z,61.50
2018-06-12T16:47:55.411Z,60.50
2018-06-12T16:52:59.358Z,60.40
2018-06-12T17:03:06.725Z,60.20
2018-06-12T17:08:10.390Z,60.30
2018-06-12T17:13:17.094Z,60.50
2018-06-12T17:18:21.055Z,59.80
2018-06-12T17:28:28.052Z,59.70
2018-06-12T17:33:31.720Z,59.70
2018-06-12T17:38:35.788Z,60.00
2018-06-12T17:43:39.749Z,61.90
2018-06-12T17:48:43.364Z,64.60
2018-06-12T17:53:48.180Z,65.90
2018-06-12T17:58:52.790Z,67.70
2018-06-12T18:03:56.446Z,69.50
2018-06-12T18:09:01.489Z,71.50
2018-06-12T18:14:10.085Z,72.40
2018-06-12T18:19:13.867Z,74.00
2018-06-12T18:24:17.511Z,73.50
2018-06-12T18:29:22.132Z,73.00
2018-06-12T18:34:25.994Z,74.60
2018-06-12T18:39:29.679Z,75.70
2018-06-12T18:44:33.693Z,77.50
2018-06-12T18:49:37.730Z,78.80
2018-06-12T18:54:42.405Z,80.90
2018-06-12T18:59:46.186Z,80.60
2018-06-12T19:04:50.225Z,78.30
2018-06-12T19:09:53.933Z,75.50
2018-06-12T19:14:57.659Z,77.70
2018-06-12T19:20:01.408Z,78.90
2018-06-12T19:25:05.071Z,78.60
2018-06-12T19:30:08.684Z,78.70
2018-06-12T19:35:13.227Z,81.40
2018-06-12T19:40:17.856Z,80.10
2018-06-12T19:45:22.147Z,79.50
2018-06-12T19:50:25.779Z,79.80
2018-06-12T19:55:29.464Z,78.20
2018-06-12T20:00:33.477Z,79.80
2018-06-12T20:05:38.315Z,79.60
2018-06-12T20:10:42.278Z,80.80
2018-06-12T20:15:45.972Z,80.80
2018-06-12T20:25:59.946Z,80.80
2018-06-12T20:31:03.591Z,80.90
2018-06-12T20:36:08.045Z,81.70
2018-06-12T20:41:11.868Z,82.50
2018-06-12T20:46:15.952Z,82.50
2018-06-12T20:51:21.998Z,81.90
2018-06-12T20:56:26.679Z,80.90
2018-06-12T21:01:30.413Z,80.90
2018-06-12T21:06:36.654Z,82.50
2018-06-12T21:11:40.417Z,79.70
2018-06-12T21:16:46.027Z,80.50
2018-06-12T21:21:49.768Z,78.90
2018-06-12T21:26:53.654Z,81.20
2018-06-12T21:32:00.190Z,80.30
2018-06-12T21:37:05.780Z,79.70
2018-06-12T21:42:09.795Z,80.40
2018-06-12T21:47:13.776Z,81.00
2018-06-12T21:52:17.391Z,80.40
2018-06-12T21:57:21.807Z,79.80
2018-06-12T22:02:25.470Z,79.50
2018-06-12T22:07:29.091Z,78.90
2018-06-12T22:12:32.924Z,80.50
2018-06-12T22:17:46.462Z,80.20
2018-06-12T22:22:50.221Z,80.90
2018-06-12T22:27:53.849Z,80.10
2018-06-12T22:32:57.583Z,80.00
2018-06-12T22:38:01.733Z,79.30
2018-06-12T22:43:05.944Z,79.60
2018-06-12T22:48:09.579Z,78.90
2018-06-12T22:53:13.508Z,79.90
2018-06-12T22:58:17.167Z,82.10
2018-06-12T23:03:21.198Z,82.20
2018-06-12T23:08:24.931Z,82.60
2018-06-12T23:13:28.594Z,82.50
2018-06-12T23:18:32.236Z,82.80
2018-06-12T23:23:35.865Z,81.30
2018-06-12T23:28:39.691Z,81.50
2018-06-12T23:33:43.955Z,81.40
2018-06-12T23:38:47.591Z,81.80
2018-06-12T23:43:51.231Z,82.50
2018-06-12T23:48:54.884Z,81.90
2018-06-12T23:53:58.828Z,82.10
2018-06-12T23:59:02.643Z,83.10
